sensor_id;sensor_type;location;lat;lon;timestamp;pressure;altitude;pressure_sealevel;temperature;humidity
22333;BME280;11334;36.986;-121.936;2023-02-15T00:01:40;101146.03;;;12.31;53.91
22333;BME280;11334;36.986;-121.936;2023-02-15T00:04:07;101146.13;;;12.47;56.69
22333;BME280;11334;36.986;-121.936;2023-02-15T00:06:34;101132.00;;;12.46;55.26
22333;BME280;11334;36.986;-121.936;2023-02-15T00:09:02;101130.19;;;12.55;55.98
22333;BME280;11334;36.986;-121.936;2023-02-15T00:11:29;101138.53;;;12.60;56.54
22333;BME280;11334;36.986;-121.936;2023-02-15T00:14:23;101150.81;;;12.53;62.46
22333;BME280;11334;36.986;-121.936;2023-02-15T00:16:51;101136.81;;;12.43;61.01
22333;BME280;11334;36.986;-121.936;2023-02-15T00:19:20;101147.44;;;12.43;63.72
22333;BME280;11334;36.986;-121.936;2023-02-15T00:21:47;101110.59;;;12.23;64.46
22333;BME280;11334;36.986;-121.936;2023-02-15T00:24:15;101120.16;;;12.33;65.10
22333;BME280;11334;36.986;-121.936;2023-02-15T00:26:43;101115.56;;;12.43;66.33
22333;BME280;11334;36.986;-121.936;2023-02-15T00:29:10;101107.56;;;12.43;62.13
22333;BME280;11334;36.986;-121.936;2023-02-15T00:31:37;101101.13;;;12.45;62.39
22333;BME280;11334;36.986;-121.936;2023-02-15T00:34:07;101075.50;;;12.44;61.21
22333;BME280;11334;36.986;-121.936;2023-02-15T00:36:34;101066.09;;;12.17;59.40
22333;BME280;11334;36.986;-121.936;2023-02-15T00:39:00;101081.91;;;12.26;60.02
22333;BME280;11334;36.986;-121.936;2023-02-15T00:41:26;101075.28;;;12.30;58.92
22333;BME280;11334;36.986;-121.936;2023-02-15T00:43:52;101085.13;;;12.04;55.99
22333;BME280;11334;36.986;-121.936;2023-02-15T00:46:18;101084.03;;;11.90;54.12
22333;BME280;11334;36.986;-121.936;2023-02-15T00:48:46;101076.94;;;11.98;56.60
22333;BME280;11334;36.986;-121.936;2023-02-15T00:51:12;101089.56;;;11.96;54.13
22333;BME280;11334;36.986;-121.936;2023-02-15T00:53:38;101090.09;;;11.74;54.10
22333;BME280;11334;36.986;-121.936;2023-02-15T00:56:04;101098.66;;;11.68;53.01
22333;BME280;11334;36.986;-121.936;2023-02-15T00:58:31;101099.69;;;11.75;52.71
22333;BME280;11334;36.986;-121.936;2023-02-15T01:01:03;101096.84;;;11.69;53.15
22333;BME280;11334;36.986;-121.936;2023-02-15T01:03:31;101090.53;;;11.70;52.13
22333;BME280;11334;36.986;-121.936;2023-02-15T01:05:57;101084.56;;;11.68;53.85
22333;BME280;11334;36.986;-121.936;2023-02-15T01:08:23;101077.22;;;11.62;53.92
22333;BME280;11334;36.986;-121.936;2023-02-15T01:10:49;101092.69;;;11.67;51.96
22333;BME280;11334;36.986;-121.936;2023-02-15T01:13:16;101097.88;;;11.76;54.22
22333;BME280;11334;36.986;-121.936;2023-02-15T01:15:43;101110.53;;;11.82;54.25
22333;BME280;11334;36.986;-121.936;2023-02-15T01:18:11;101105.28;;;11.90;53.13
22333;BME280;11334;36.986;-121.936;2023-02-15T01:20:38;101112.25;;;11.91;53.12
22333;BME280;11334;36.986;-121.936;2023-02-15T01:23:07;101103.91;;;11.86;56.15
22333;BME280;11334;36.986;-121.936;2023-02-15T01:25:34;101100.06;;;11.80;53.53
22333;BME280;11334;36.986;-121.936;2023-02-15T01:28:01;101096.72;;;11.78;54.23
22333;BME280;11334;36.986;-121.936;2023-02-15T01:30:28;101115.53;;;11.85;53.54
22333;BME280;11334;36.986;-121.936;2023-02-15T01:32:54;101115.63;;;11.75;53.45
22333;BME280;11334;36.986;-121.936;2023-02-15T01:35:21;101115.16;;;11.80;55.00
22333;BME280;11334;36.986;-121.936;2023-02-15T01:37:47;101114.47;;;11.78;54.58
22333;BME280;11334;36.986;-121.936;2023-02-15T01:40:15;101115.81;;;11.74;54.29
22333;BME280;11334;36.986;-121.936;2023-02-15T01:42:42;101107.31;;;11.53;54.68
22333;BME280;11334;36.986;-121.936;2023-02-15T01:45:29;101111.78;;;11.35;56.00
22333;BME280;11334;36.986;-121.936;2023-02-15T01:50:38;101129.66;;;11.34;56.87
22333;BME280;11334;36.986;-121.936;2023-02-15T01:58:30;101137.19;;;11.21;58.38
22333;BME280;11334;36.986;-121.936;2023-02-15T02:00:59;101141.03;;;11.26;58.19
22333;BME280;11334;36.986;-121.936;2023-02-15T02:04:33;101141.22;;;11.25;58.80
22333;BME280;11334;36.986;-121.936;2023-02-15T02:06:33;101146.34;;;11.26;59.17
22333;BME280;11334;36.986;-121.936;2023-02-15T02:09:02;101140.13;;;11.35;59.20
22333;BME280;11334;36.986;-121.936;2023-02-15T02:11:28;101142.22;;;11.41;57.74
22333;BME280;11334;36.986;-121.936;2023-02-15T02:13:55;101156.19;;;11.34;58.98
22333;BME280;11334;36.986;-121.936;2023-02-15T02:33:51;101184.78;;;11.22;62.16
22333;BME280;11334;36.986;-121.936;2023-02-15T02:39:05;101191.75;;;11.23;62.28
22333;BME280;11334;36.986;-121.936;2023-02-15T02:49:39;101204.78;;;11.17;63.41
22333;BME280;11334;36.986;-121.936;2023-02-15T02:52:33;101201.44;;;11.15;63.58
22333;BME280;11334;36.986;-121.936;2023-02-15T02:54:54;101213.88;;;11.14;64.22
22333;BME280;11334;36.986;-121.936;2023-02-15T02:57:23;101199.75;;;11.14;64.22
22333;BME280;11334;36.986;-121.936;2023-02-15T02:59:50;101205.44;;;11.19;63.46
22333;BME280;11334;36.986;-121.936;2023-02-15T03:02:21;101207.50;;;11.25;62.05
22333;BME280;11334;36.986;-121.936;2023-02-15T03:04:57;101209.91;;;11.18;62.96
22333;BME280;11334;36.986;-121.936;2023-02-15T03:07:30;101206.31;;;11.19;63.60
22333;BME280;11334;36.986;-121.936;2023-02-15T03:09:58;101215.38;;;11.17;63.37
22333;BME280;11334;36.986;-121.936;2023-02-15T03:12:33;101219.31;;;11.13;63.30
22333;BME280;11334;36.986;-121.936;2023-02-15T03:15:05;101223.63;;;11.14;63.83
22333;BME280;11334;36.986;-121.936;2023-02-15T03:17:35;101220.97;;;11.14;62.66
22333;BME280;11334;36.986;-121.936;2023-02-15T03:20:15;101228.00;;;11.05;63.11
22333;BME280;11334;36.986;-121.936;2023-02-15T03:22:51;101225.84;;;10.92;63.24
22333;BME280;11334;36.986;-121.936;2023-02-15T03:25:22;101234.75;;;11.00;63.58
22333;BME280;11334;36.986;-121.936;2023-02-15T03:27:59;101240.03;;;11.00;63.39
22333;BME280;11334;36.986;-121.936;2023-02-15T03:30:29;101241.41;;;11.04;63.03
22333;BME280;11334;36.986;-121.936;2023-02-15T03:32:59;101251.22;;;10.94;63.81
22333;BME280;11334;36.986;-121.936;2023-02-15T03:35:30;101257.81;;;10.90;64.46
22333;BME280;11334;36.986;-121.936;2023-02-15T03:38:00;101256.59;;;10.85;64.18
22333;BME280;11334;36.986;-121.936;2023-02-15T03:40:34;101247.34;;;10.89;64.20
22333;BME280;11334;36.986;-121.936;2023-02-15T03:43:44;101265.59;;;10.92;62.46
22333;BME280;11334;36.986;-121.936;2023-02-15T03:46:24;101268.84;;;10.86;62.62
22333;BME280;11334;36.986;-121.936;2023-02-15T03:49:37;101264.81;;;10.82;63.05
22333;BME280;11334;36.986;-121.936;2023-02-15T03:52:02;101265.53;;;10.74;63.20
22333;BME280;11334;36.986;-121.936;2023-02-15T03:54:32;101269.31;;;10.72;63.65
22333;BME280;11334;36.986;-121.936;2023-02-15T03:57:27;101272.13;;;10.71;64.57
22333;BME280;11334;36.986;-121.936;2023-02-15T04:00:21;101268.50;;;10.62;64.65
22333;BME280;11334;36.986;-121.936;2023-02-15T04:06:01;101285.25;;;10.63;64.82
22333;BME280;11334;36.986;-121.936;2023-02-15T04:08:28;101282.03;;;10.59;64.56
22333;BME280;11334;36.986;-121.936;2023-02-15T04:11:13;101288.31;;;10.58;64.38
22333;BME280;11334;36.986;-121.936;2023-02-15T04:13:40;101293.75;;;10.57;64.58
22333;BME280;11334;36.986;-121.936;2023-02-15T04:16:06;101290.00;;;10.50;65.01
22333;BME280;11334;36.986;-121.936;2023-02-15T04:18:34;101299.38;;;10.44;65.21
22333;BME280;11334;36.986;-121.936;2023-02-15T04:21:20;101302.31;;;10.41;66.18
22333;BME280;11334;36.986;-121.936;2023-02-15T04:24:05;101305.34;;;10.46;65.86
22333;BME280;11334;36.986;-121.936;2023-02-15T04:26:50;101279.06;;;10.26;66.04
22333;BME280;11334;36.986;-121.936;2023-02-15T04:29:19;101305.94;;;10.41;66.07
22333;BME280;11334;36.986;-121.936;2023-02-15T04:31:46;101311.78;;;10.35;65.80
22333;BME280;11334;36.986;-121.936;2023-02-15T04:34:13;101316.66;;;10.30;65.15
22333;BME280;11334;36.986;-121.936;2023-02-15T04:36:39;101321.97;;;10.20;66.84
22333;BME280;11334;36.986;-121.936;2023-02-15T04:39:07;101326.44;;;10.20;65.85
22333;BME280;11334;36.986;-121.936;2023-02-15T04:41:34;101316.84;;;10.19;66.43
22333;BME280;11334;36.986;-121.936;2023-02-15T04:44:01;101324.91;;;10.17;66.11
22333;BME280;11334;36.986;-121.936;2023-02-15T04:46:28;101324.66;;;10.11;66.14
22333;BME280;11334;36.986;-121.936;2023-02-15T04:48:56;101313.34;;;10.00;65.70
22333;BME280;11334;36.986;-121.936;2023-02-15T04:51:22;101333.00;;;10.07;64.84
22333;BME280;11334;36.986;-121.936;2023-02-15T04:53:49;101349.00;;;10.14;64.51
22333;BME280;11334;36.986;-121.936;2023-02-15T04:56:19;101344.00;;;10.11;64.13
22333;BME280;11334;36.986;-121.936;2023-02-15T04:58:45;101357.66;;;10.07;63.29
22333;BME280;11334;36.986;-121.936;2023-02-15T05:01:11;101325.75;;;9.90;63.91
22333;BME280;11334;36.986;-121.936;2023-02-15T05:03:38;101354.59;;;10.02;63.44
22333;BME280;11334;36.986;-121.936;2023-02-15T05:06:04;101358.34;;;10.09;64.05
22333;BME280;11334;36.986;-121.936;2023-02-15T05:08:31;101355.56;;;10.01;63.80
22333;BME280;11334;36.986;-121.936;2023-02-15T05:10:58;101363.78;;;10.08;63.19
22333;BME280;11334;36.986;-121.936;2023-02-15T05:13:24;101359.06;;;10.11;63.31
22333;BME280;11334;36.986;-121.936;2023-02-15T05:15:51;101358.22;;;10.20;62.92
22333;BME280;11334;36.986;-121.936;2023-02-15T05:18:20;101364.75;;;10.25;62.65
22333;BME280;11334;36.986;-121.936;2023-02-15T05:20:47;101366.00;;;10.03;61.74
22333;BME280;11334;36.986;-121.936;2023-02-15T05:23:13;101373.41;;;10.09;62.50
22333;BME280;11334;36.986;-121.936;2023-02-15T05:25:40;101370.19;;;10.05;62.93
22333;BME280;11334;36.986;-121.936;2023-02-15T05:28:27;101369.91;;;10.17;61.88
22333;BME280;11334;36.986;-121.936;2023-02-15T05:31:03;101375.09;;;10.19;62.14
22333;BME280;11334;36.986;-121.936;2023-02-15T05:33:30;101370.50;;;10.21;62.42
22333;BME280;11334;36.986;-121.936;2023-02-15T05:35:56;101381.75;;;10.23;61.64
22333;BME280;11334;36.986;-121.936;2023-02-15T05:38:23;101383.44;;;10.24;61.69
22333;BME280;11334;36.986;-121.936;2023-02-15T05:40:51;101381.63;;;10.24;61.34
22333;BME280;11334;36.986;-121.936;2023-02-15T05:43:17;101387.75;;;10.25;61.51
22333;BME280;11334;36.986;-121.936;2023-02-15T05:45:51;101363.66;;;10.09;60.12
22333;BME280;11334;36.986;-121.936;2023-02-15T05:48:18;101377.44;;;10.12;61.39
22333;BME280;11334;36.986;-121.936;2023-02-15T05:50:45;101400.00;;;10.35;60.00
22333;BME280;11334;36.986;-121.936;2023-02-15T05:53:12;101402.25;;;10.30;59.76
22333;BME280;11334;36.986;-121.936;2023-02-15T05:55:39;101407.28;;;10.33;59.52
22333;BME280;11334;36.986;-121.936;2023-02-15T05:58:06;101410.19;;;10.30;59.79
22333;BME280;11334;36.986;-121.936;2023-02-15T06:00:34;101421.88;;;10.28;59.87
22333;BME280;11334;36.986;-121.936;2023-02-15T06:03:00;101415.06;;;10.25;59.96
22333;BME280;11334;36.986;-121.936;2023-02-15T06:05:26;101420.94;;;10.29;59.68
22333;BME280;11334;36.986;-121.936;2023-02-15T06:07:53;101416.06;;;10.24;60.07
22333;BME280;11334;36.986;-121.936;2023-02-15T06:10:19;101397.34;;;10.07;59.37
22333;BME280;11334;36.986;-121.936;2023-02-15T06:12:45;101423.72;;;10.27;58.94
22333;BME280;11334;36.986;-121.936;2023-02-15T06:15:11;101435.13;;;10.28;58.71
22333;BME280;11334;36.986;-121.936;2023-02-15T06:17:38;101441.00;;;10.31;58.52
22333;BME280;11334;36.986;-121.936;2023-02-15T06:20:06;101442.38;;;10.35;57.78
22333;BME280;11334;36.986;-121.936;2023-02-15T06:22:34;101434.59;;;10.34;58.11
22333;BME280;11334;36.986;-121.936;2023-02-15T06:25:00;101440.59;;;10.36;57.11
22333;BME280;11334;36.986;-121.936;2023-02-15T06:27:27;101429.16;;;10.35;56.30
22333;BME280;11334;36.986;-121.936;2023-02-15T06:29:53;101441.84;;;10.41;56.19
22333;BME280;11334;36.986;-121.936;2023-02-15T06:32:19;101444.63;;;10.40;56.16
22333;BME280;11334;36.986;-121.936;2023-02-15T06:34:45;101440.88;;;10.23;55.04
22333;BME280;11334;36.986;-121.936;2023-02-15T06:37:12;101448.97;;;10.31;56.16
22333;BME280;11334;36.986;-121.936;2023-02-15T06:39:38;101438.06;;;10.34;55.60
22333;BME280;11334;36.986;-121.936;2023-02-15T06:42:04;101433.63;;;10.35;55.79
22333;BME280;11334;36.986;-121.936;2023-02-15T06:44:30;101434.72;;;10.32;55.12
22333;BME280;11334;36.986;-121.936;2023-02-15T06:46:57;101441.13;;;10.30;55.16
22333;BME280;11334;36.986;-121.936;2023-02-15T06:49:23;101451.44;;;10.33;55.75
22333;BME280;11334;36.986;-121.936;2023-02-15T06:51:49;101446.59;;;10.28;55.92
22333;BME280;11334;36.986;-121.936;2023-02-15T06:54:15;101453.66;;;10.28;56.23
22333;BME280;11334;36.986;-121.936;2023-02-15T06:56:42;101447.13;;;10.22;57.00
22333;BME280;11334;36.986;-121.936;2023-02-15T06:59:12;101459.38;;;10.33;55.93
22333;BME280;11334;36.986;-121.936;2023-02-15T07:01:38;101460.38;;;10.32;56.03
22333;BME280;11334;36.986;-121.936;2023-02-15T07:04:04;101456.47;;;10.26;55.97
22333;BME280;11334;36.986;-121.936;2023-02-15T07:06:32;101456.59;;;10.25;56.01
22333;BME280;11334;36.986;-121.936;2023-02-15T07:08:59;101460.34;;;10.22;56.25
22333;BME280;11334;36.986;-121.936;2023-02-15T07:11:26;101463.00;;;10.22;55.05
22333;BME280;11334;36.986;-121.936;2023-02-15T07:14:10;101464.81;;;10.22;55.07
22333;BME280;11334;36.986;-121.936;2023-02-15T07:16:37;101469.81;;;10.15;55.71
22333;BME280;11334;36.986;-121.936;2023-02-15T07:19:03;101471.34;;;10.09;56.25
22333;BME280;11334;36.986;-121.936;2023-02-15T07:21:29;101483.34;;;10.12;55.79
22333;BME280;11334;36.986;-121.936;2023-02-15T07:23:57;101471.88;;;10.03;55.25
22333;BME280;11334;36.986;-121.936;2023-02-15T07:26:23;101487.25;;;10.09;55.70
22333;BME280;11334;36.986;-121.936;2023-02-15T07:28:49;101490.16;;;10.06;55.68
22333;BME280;11334;36.986;-121.936;2023-02-15T07:31:16;101492.94;;;10.04;56.24
22333;BME280;11334;36.986;-121.936;2023-02-15T07:33:42;101479.97;;;10.01;55.93
22333;BME280;11334;36.986;-121.936;2023-02-15T07:36:09;101498.78;;;10.08;55.54
22333;BME280;11334;36.986;-121.936;2023-02-15T07:38:39;101489.19;;;10.07;54.59
22333;BME280;11334;36.986;-121.936;2023-02-15T07:41:12;101516.22;;;10.10;55.38
22333;BME280;11334;36.986;-121.936;2023-02-15T07:43:40;101503.69;;;10.12;54.86
22333;BME280;11334;36.986;-121.936;2023-02-15T07:46:10;101497.94;;;10.07;54.73
22333;BME280;11334;36.986;-121.936;2023-02-15T07:48:38;101501.72;;;10.05;54.72
22333;BME280;11334;36.986;-121.936;2023-02-15T07:51:06;101507.31;;;10.11;54.26
22333;BME280;11334;36.986;-121.936;2023-02-15T07:53:33;101509.38;;;10.08;54.43
22333;BME280;11334;36.986;-121.936;2023-02-15T07:56:04;101507.00;;;10.05;54.22
22333;BME280;11334;36.986;-121.936;2023-02-15T07:58:33;101509.97;;;10.11;53.99
22333;BME280;11334;36.986;-121.936;2023-02-15T08:01:28;101510.91;;;10.10;54.00
22333;BME280;11334;36.986;-121.936;2023-02-15T08:03:56;101521.78;;;10.07;53.49
22333;BME280;11334;36.986;-121.936;2023-02-15T08:06:25;101521.34;;;10.02;53.76
22333;BME280;11334;36.986;-121.936;2023-02-15T08:08:51;101527.19;;;9.96;53.87
22333;BME280;11334;36.986;-121.936;2023-02-15T08:11:29;101533.44;;;9.95;54.24
22333;BME280;11334;36.986;-121.936;2023-02-15T08:16:32;101530.53;;;9.98;53.28
22333;BME280;11334;36.986;-121.936;2023-02-15T08:19:02;101539.16;;;9.91;53.54
22333;BME280;11334;36.986;-121.936;2023-02-15T08:21:30;101531.69;;;9.85;53.09
22333;BME280;11334;36.986;-121.936;2023-02-15T08:23:57;101557.69;;;9.91;52.61
22333;BME280;11334;36.986;-121.936;2023-02-15T08:26:24;101540.63;;;9.84;52.73
22333;BME280;11334;36.986;-121.936;2023-02-15T08:28:51;101546.19;;;9.81;52.51
22333;BME280;11334;36.986;-121.936;2023-02-15T08:31:18;101540.88;;;9.81;52.27
22333;BME280;11334;36.986;-121.936;2023-02-15T08:33:46;101559.09;;;9.75;53.02
22333;BME280;11334;36.986;-121.936;2023-02-15T08:36:17;101555.91;;;9.80;52.71
22333;BME280;11334;36.986;-121.936;2023-02-15T08:38:44;101558.09;;;9.76;52.11
22333;BME280;11334;36.986;-121.936;2023-02-15T08:41:45;101564.09;;;9.77;52.24
22333;BME280;11334;36.986;-121.936;2023-02-15T08:44:06;101559.09;;;9.75;51.82
22333;BME280;11334;36.986;-121.936;2023-02-15T08:46:35;101562.56;;;9.75;51.66
22333;BME280;11334;36.986;-121.936;2023-02-15T08:49:02;101573.59;;;9.80;50.90
22333;BME280;11334;36.986;-121.936;2023-02-15T08:51:31;101567.28;;;9.72;50.84
22333;BME280;11334;36.986;-121.936;2023-02-15T08:54:00;101567.78;;;9.56;50.85
22333;BME280;11334;36.986;-121.936;2023-02-15T08:56:33;101572.63;;;9.61;50.44
22333;BME280;11334;36.986;-121.936;2023-02-15T08:59:00;101579.75;;;9.60;50.22
22333;BME280;11334;36.986;-121.936;2023-02-15T09:01:31;101571.97;;;9.59;50.24
22333;BME280;11334;36.986;-121.936;2023-02-15T09:04:03;101581.56;;;9.60;50.09
22333;BME280;11334;36.986;-121.936;2023-02-15T09:06:31;101576.91;;;9.52;50.27
22333;BME280;11334;36.986;-121.936;2023-02-15T09:08:58;101580.28;;;9.54;50.29
22333;BME280;11334;36.986;-121.936;2023-02-15T09:11:26;101577.47;;;9.56;49.71
22333;BME280;11334;36.986;-121.936;2023-02-15T09:13:58;101578.66;;;9.63;49.80
22333;BME280;11334;36.986;-121.936;2023-02-15T09:16:27;101569.75;;;9.64;49.47
22333;BME280;11334;36.986;-121.936;2023-02-15T09:18:54;101558.31;;;9.63;49.51
22333;BME280;11334;36.986;-121.936;2023-02-15T09:21:24;101563.31;;;9.57;48.39
22333;BME280;11334;36.986;-121.936;2023-02-15T09:23:55;101561.75;;;9.54;49.19
22333;BME280;11334;36.986;-121.936;2023-02-15T09:26:23;101571.38;;;9.55;49.12
22333;BME280;11334;36.986;-121.936;2023-02-15T09:28:55;101559.84;;;9.56;48.13
22333;BME280;11334;36.986;-121.936;2023-02-15T09:31:27;101564.97;;;9.58;47.66
22333;BME280;11334;36.986;-121.936;2023-02-15T09:33:54;101574.16;;;9.54;47.14
22333;BME280;11334;36.986;-121.936;2023-02-15T09:36:26;101565.69;;;9.40;48.18
22333;BME280;11334;36.986;-121.936;2023-02-15T09:38:56;101585.50;;;9.45;47.22
22333;BME280;11334;36.986;-121.936;2023-02-15T09:55:45;101594.34;;;9.35;46.84
22333;BME280;11334;36.986;-121.936;2023-02-15T10:01:02;101592.41;;;9.37;45.56
22333;BME280;11334;36.986;-121.936;2023-02-15T10:09:03;101569.25;;;9.29;45.46
22333;BME280;11334;36.986;-121.936;2023-02-15T10:19:45;101578.47;;;9.35;44.52
22333;BME280;11334;36.986;-121.936;2023-02-15T10:27:45;101577.50;;;9.36;44.57
22333;BME280;11334;36.986;-121.936;2023-02-15T10:30:23;101593.16;;;9.28;44.07
22333;BME280;11334;36.986;-121.936;2023-02-15T10:33:02;101594.16;;;9.27;44.59
22333;BME280;11334;36.986;-121.936;2023-02-15T10:35:59;101583.13;;;9.22;44.59
22333;BME280;11334;36.986;-121.936;2023-02-15T10:49:36;101590.13;;;9.12;43.13
22333;BME280;11334;36.986;-121.936;2023-02-15T10:55:02;101586.13;;;9.17;42.35
22333;BME280;11334;36.986;-121.936;2023-02-15T10:57:53;101579.94;;;9.08;41.88
22333;BME280;11334;36.986;-121.936;2023-02-15T11:01:26;101591.44;;;9.07;42.02
22333;BME280;11334;36.986;-121.936;2023-02-15T11:06:52;101583.53;;;9.07;41.34
22333;BME280;11334;36.986;-121.936;2023-02-15T11:09:25;101574.75;;;9.06;40.80
22333;BME280;11334;36.986;-121.936;2023-02-15T11:11:56;101581.03;;;9.05;41.15
22333;BME280;11334;36.986;-121.936;2023-02-15T11:17:43;101575.75;;;9.05;41.56
22333;BME280;11334;36.986;-121.936;2023-02-15T11:20:33;101580.19;;;9.05;41.72
22333;BME280;11334;36.986;-121.936;2023-02-15T11:23:02;101586.56;;;9.02;41.47
22333;BME280;11334;36.986;-121.936;2023-02-15T11:25:32;101578.75;;;9.01;41.77
22333;BME280;11334;36.986;-121.936;2023-02-15T11:28:03;101579.75;;;9.00;41.47
22333;BME280;11334;36.986;-121.936;2023-02-15T11:30:42;101574.22;;;8.92;42.13
22333;BME280;11334;36.986;-121.936;2023-02-15T11:33:20;101583.03;;;8.82;42.30
22333;BME280;11334;36.986;-121.936;2023-02-15T11:36:21;101579.91;;;8.77;41.97
22333;BME280;11334;36.986;-121.936;2023-02-15T11:38:52;101579.81;;;8.78;42.54
22333;BME280;11334;36.986;-121.936;2023-02-15T11:41:27;101581.38;;;8.81;41.86
22333;BME280;11334;36.986;-121.936;2023-02-15T11:46:27;101594.00;;;8.77;41.89
22333;BME280;11334;36.986;-121.936;2023-02-15T11:48:54;101591.94;;;8.81;41.15
22333;BME280;11334;36.986;-121.936;2023-02-15T11:51:22;101590.38;;;8.78;41.07
22333;BME280;11334;36.986;-121.936;2023-02-15T11:53:49;101596.63;;;8.77;41.77
22333;BME280;11334;36.986;-121.936;2023-02-15T11:56:22;101597.94;;;8.72;41.79
22333;BME280;11334;36.986;-121.936;2023-02-15T11:59:09;101604.41;;;8.79;41.53
22333;BME280;11334;36.986;-121.936;2023-02-15T12:01:43;101602.25;;;8.83;40.82
22333;BME280;11334;36.986;-121.936;2023-02-15T12:09:50;101611.00;;;8.84;40.51
22333;BME280;11334;36.986;-121.936;2023-02-15T12:12:25;101604.41;;;8.79;41.28
22333;BME280;11334;36.986;-121.936;2023-02-15T12:14:54;101604.78;;;8.74;41.88
22333;BME280;11334;36.986;-121.936;2023-02-15T12:17:29;101609.69;;;8.79;41.33
22333;BME280;11334;36.986;-121.936;2023-02-15T12:20:01;101609.84;;;8.66;41.69
22333;BME280;11334;36.986;-121.936;2023-02-15T12:22:34;101610.47;;;8.70;41.35
22333;BME280;11334;36.986;-121.936;2023-02-15T12:27:47;101621.63;;;8.73;40.90
22333;BME280;11334;36.986;-121.936;2023-02-15T12:30:34;101626.78;;;8.75;41.64
22333;BME280;11334;36.986;-121.936;2023-02-15T12:36:21;101633.53;;;8.68;42.02
22333;BME280;11334;36.986;-121.936;2023-02-15T12:41:56;101651.72;;;8.82;42.19
22333;BME280;11334;36.986;-121.936;2023-02-15T12:44:32;101656.41;;;8.78;42.43
22333;BME280;11334;36.986;-121.936;2023-02-15T12:47:02;101660.03;;;8.77;42.91
22333;BME280;11334;36.986;-121.936;2023-02-15T12:49:36;101654.16;;;8.74;43.01
22333;BME280;11334;36.986;-121.936;2023-02-15T12:52:24;101670.22;;;8.82;42.70
22333;BME280;11334;36.986;-121.936;2023-02-15T12:54:51;101674.41;;;8.84;41.99
22333;BME280;11334;36.986;-121.936;2023-02-15T12:57:23;101676.22;;;8.83;42.17
22333;BME280;11334;36.986;-121.936;2023-02-15T13:00:01;101664.31;;;8.89;41.43
22333;BME280;11334;36.986;-121.936;2023-02-15T13:02:41;101679.69;;;8.84;41.99
22333;BME280;11334;36.986;-121.936;2023-02-15T13:07:58;101683.06;;;8.86;41.47
22333;BME280;11334;36.986;-121.936;2023-02-15T13:10:32;101692.53;;;8.88;41.60
22333;BME280;11334;36.986;-121.936;2023-02-15T13:13:00;101698.69;;;8.78;40.13
22333;BME280;11334;36.986;-121.936;2023-02-15T13:15:40;101701.91;;;8.82;39.95
22333;BME280;11334;36.986;-121.936;2023-02-15T13:18:15;101708.75;;;8.84;40.14
22333;BME280;11334;36.986;-121.936;2023-02-15T13:20:42;101714.19;;;8.82;40.32
22333;BME280;11334;36.986;-121.936;2023-02-15T13:23:28;101716.00;;;8.82;39.90
22333;BME280;11334;36.986;-121.936;2023-02-15T13:25:57;101719.06;;;8.87;38.93
22333;BME280;11334;36.986;-121.936;2023-02-15T13:28:37;101716.44;;;8.87;39.23
22333;BME280;11334;36.986;-121.936;2023-02-15T13:31:12;101721.84;;;8.85;38.20
22333;BME280;11334;36.986;-121.936;2023-02-15T13:33:44;101726.88;;;8.88;38.44
22333;BME280;11334;36.986;-121.936;2023-02-15T13:36:31;101726.06;;;8.88;38.40
22333;BME280;11334;36.986;-121.936;2023-02-15T13:42:05;101735.28;;;8.93;38.91
22333;BME280;11334;36.986;-121.936;2023-02-15T13:50:56;101742.25;;;8.94;37.95
22333;BME280;11334;36.986;-121.936;2023-02-15T13:53:48;101753.06;;;8.91;39.38
22333;BME280;11334;36.986;-121.936;2023-02-15T14:04:59;101769.28;;;8.87;39.04
22333;BME280;11334;36.986;-121.936;2023-02-15T14:07:41;101773.25;;;8.92;37.95
22333;BME280;11334;36.986;-121.936;2023-02-15T14:10:33;101772.78;;;8.77;40.47
22333;BME280;11334;36.986;-121.936;2023-02-15T14:16:17;101781.19;;;8.60;43.91
22333;BME280;11334;36.986;-121.936;2023-02-15T14:20:05;101765.66;;;8.45;44.49
22333;BME280;11334;36.986;-121.936;2023-02-15T14:22:18;101786.09;;;8.43;44.11
22333;BME280;11334;36.986;-121.936;2023-02-15T14:28:33;101792.75;;;8.14;47.16
22333;BME280;11334;36.986;-121.936;2023-02-15T14:30:37;101796.03;;;8.05;46.67
22333;BME280;11334;36.986;-121.936;2023-02-15T14:35:48;101805.56;;;7.85;45.05
22333;BME280;11334;36.986;-121.936;2023-02-15T14:38:51;101813.47;;;7.85;46.25
22333;BME280;11334;36.986;-121.936;2023-02-15T14:41:40;101825.31;;;7.79;45.95
22333;BME280;11334;36.986;-121.936;2023-02-15T14:44:23;101821.16;;;7.64;47.21
22333;BME280;11334;36.986;-121.936;2023-02-15T14:47:10;101826.88;;;7.58;47.41
22333;BME280;11334;36.986;-121.936;2023-02-15T14:49:40;101821.97;;;7.54;46.58
22333;BME280;11334;36.986;-121.936;2023-02-15T14:52:08;101824.19;;;7.48;47.86
22333;BME280;11334;36.986;-121.936;2023-02-15T15:02:12;101839.25;;;7.23;48.42
22333;BME280;11334;36.986;-121.936;2023-02-15T15:04:52;101850.84;;;7.20;49.53
22333;BME280;11334;36.986;-121.936;2023-02-15T15:10:00;101840.78;;;7.02;51.34
22333;BME280;11334;36.986;-121.936;2023-02-15T15:15:01;101863.44;;;6.92;51.40
22333;BME280;11334;36.986;-121.936;2023-02-15T15:20:11;101881.88;;;6.92;51.37
22333;BME280;11334;36.986;-121.936;2023-02-15T15:22:41;101881.34;;;6.87;51.70
22333;BME280;11334;36.986;-121.936;2023-02-15T15:27:59;101879.63;;;6.86;50.98
22333;BME280;11334;36.986;-121.936;2023-02-15T15:47:08;101913.88;;;6.98;54.19
22333;BME280;11334;36.986;-121.936;2023-02-15T15:49:41;101884.91;;;6.98;53.53